sensor_id;sensor_type;location;lat;lon;timestamp;P1;durP1;ratioP1;P2;durP2;ratioP2
47113;SDS011;32867;51.556;6.832;2023-04-15T00:02:17;5.85;;;4.18;;
47113;SDS011;32867;51.556;6.832;2023-04-15T00:07:18;7.05;;;4.05;;
47113;SDS011;32867;51.556;6.832;2023-04-15T00:12:19;6.25;;;4.10;;
47113;SDS011;32867;51.556;6.832;2023-04-15T00:17:20;6.00;;;3.47;;
47113;SDS011;32867;51.556;6.832;2023-04-15T00:22:21;7.22;;;4.28;;
47113;SDS011;32867;51.556;6.832;2023-04-15T00:27:22;7.07;;;3.95;;
47113;SDS011;32867;51.556;6.832;2023-04-15T00:32:23;8.55;;;4.88;;
47113;SDS011;32867;51.556;6.832;2023-04-15T00:37:23;6.85;;;4.05;;
47113;SDS011;32867;51.556;6.832;2023-04-15T00:42:25;7.43;;;4.43;;
47113;SDS011;32867;51.556;6.832;2023-04-15T00:47:26;7.35;;;4.80;;
47113;SDS011;32867;51.556;6.832;2023-04-15T00:52:30;6.78;;;4.97;;
47113;SDS011;32867;51.556;6.832;2023-04-15T00:57:31;6.15;;;4.28;;
47113;SDS011;32867;51.556;6.832;2023-04-15T01:02:32;6.75;;;3.72;;
47113;SDS011;32867;51.556;6.832;2023-04-15T01:07:35;6.05;;;3.63;;
47113;SDS011;32867;51.556;6.832;2023-04-15T01:12:36;6.78;;;4.50;;
47113;SDS011;32867;51.556;6.832;2023-04-15T01:17:38;6.95;;;4.10;;
47113;SDS011;32867;51.556;6.832;2023-04-15T01:22:40;7.45;;;4.22;;
47113;SDS011;32867;51.556;6.832;2023-04-15T01:27:41;5.60;;;3.95;;
47113;SDS011;32867;51.556;6.832;2023-04-15T01:32:43;7.07;;;4.63;;
47113;SDS011;32867;51.556;6.832;2023-04-15T01:37:45;6.40;;;4.55;;
47113;SDS011;32867;51.556;6.832;2023-04-15T01:42:46;6.65;;;4.05;;
47113;SDS011;32867;51.556;6.832;2023-04-15T01:47:48;6.95;;;4.20;;
47113;SDS011;32867;51.556;6.832;2023-04-15T01:52:49;5.85;;;4.53;;
47113;SDS011;32867;51.556;6.832;2023-04-15T01:57:51;6.35;;;4.15;;
47113;SDS011;32867;51.556;6.832;2023-04-15T02:02:52;6.80;;;4.78;;
47113;SDS011;32867;51.556;6.832;2023-04-15T02:07:52;5.90;;;4.50;;
47113;SDS011;32867;51.556;6.832;2023-04-15T02:12:53;7.05;;;4.43;;
47113;SDS011;32867;51.556;6.832;2023-04-15T02:17:54;6.35;;;4.55;;
47113;SDS011;32867;51.556;6.832;2023-04-15T02:22:55;7.70;;;4.25;;
47113;SDS011;32867;51.556;6.832;2023-04-15T02:27:56;5.75;;;3.97;;
47113;SDS011;32867;51.556;6.832;2023-04-15T02:32:57;8.40;;;5.28;;
47113;SDS011;32867;51.556;6.832;2023-04-15T02:37:58;8.02;;;4.72;;
47113;SDS011;32867;51.556;6.832;2023-04-15T02:43:00;6.35;;;4.20;;
47113;SDS011;32867;51.556;6.832;2023-04-15T02:48:02;6.53;;;4.65;;
47113;SDS011;32867;51.556;6.832;2023-04-15T02:53:05;7.18;;;5.00;;
47113;SDS011;32867;51.556;6.832;2023-04-15T02:58:06;6.35;;;4.85;;
47113;SDS011;32867;51.556;6.832;2023-04-15T03:03:06;5.95;;;4.35;;
47113;SDS011;32867;51.556;6.832;2023-04-15T03:08:08;6.80;;;4.68;;
47113;SDS011;32867;51.556;6.832;2023-04-15T03:13:08;6.20;;;4.47;;
47113;SDS011;32867;51.556;6.832;2023-04-15T03:18:09;7.15;;;5.07;;
47113;SDS011;32867;51.556;6.832;2023-04-15T03:23:10;7.18;;;5.38;;
47113;SDS011;32867;51.556;6.832;2023-04-15T03:28:11;6.80;;;4.88;;
47113;SDS011;32867;51.556;6.832;2023-04-15T03:33:11;7.90;;;5.32;;
47113;SDS011;32867;51.556;6.832;2023-04-15T03:38:12;8.85;;;5.57;;
47113;SDS011;32867;51.556;6.832;2023-04-15T03:43:13;7.57;;;6.30;;
47113;SDS011;32867;51.556;6.832;2023-04-15T03:48:13;8.43;;;5.90;;
47113;SDS011;32867;51.556;6.832;2023-04-15T03:53:14;8.77;;;6.07;;
47113;SDS011;32867;51.556;6.832;2023-04-15T03:58:15;9.57;;;5.75;;
47113;SDS011;32867;51.556;6.832;2023-04-15T04:03:16;8.55;;;5.65;;
47113;SDS011;32867;51.556;6.832;2023-04-15T04:08:16;7.30;;;5.88;;
47113;SDS011;32867;51.556;6.832;2023-04-15T04:13:18;8.43;;;6.10;;
47113;SDS011;32867;51.556;6.832;2023-04-15T04:18:19;9.25;;;6.05;;
47113;SDS011;32867;51.556;6.832;2023-04-15T04:23:19;10.45;;;6.72;;
47113;SDS011;32867;51.556;6.832;2023-04-15T04:28:20;10.00;;;6.88;;
47113;SDS011;32867;51.556;6.832;2023-04-15T04:33:21;9.23;;;6.05;;
47113;SDS011;32867;51.556;6.832;2023-04-15T04:38:21;7.72;;;5.78;;
47113;SDS011;32867;51.556;6.832;2023-04-15T04:43:22;9.60;;;6.22;;
47113;SDS011;32867;51.556;6.832;2023-04-15T04:48:23;9.65;;;6.18;;
47113;SDS011;32867;51.556;6.832;2023-04-15T04:53:24;9.45;;;6.95;;
47113;SDS011;32867;51.556;6.832;2023-04-15T04:58:24;10.05;;;6.93;;
47113;SDS011;32867;51.556;6.832;2023-04-15T05:03:25;9.68;;;6.72;;
47113;SDS011;32867;51.556;6.832;2023-04-15T05:08:26;10.50;;;6.90;;
47113;SDS011;32867;51.556;6.832;2023-04-15T05:13:27;8.73;;;6.10;;
47113;SDS011;32867;51.556;6.832;2023-04-15T05:18:27;11.10;;;6.90;;
47113;SDS011;32867;51.556;6.832;2023-04-15T05:23:28;9.13;;;6.97;;
47113;SDS011;32867;51.556;6.832;2023-04-15T05:28:29;9.98;;;7.43;;
47113;SDS011;32867;51.556;6.832;2023-04-15T05:33:30;10.60;;;7.60;;
47113;SDS011;32867;51.556;6.832;2023-04-15T05:38:30;10.88;;;7.47;;
47113;SDS011;32867;51.556;6.832;2023-04-15T05:43:31;11.90;;;8.93;;
47113;SDS011;32867;51.556;6.832;2023-04-15T05:48:31;10.68;;;7.90;;
47113;SDS011;32867;51.556;6.832;2023-04-15T05:53:32;9.43;;;7.75;;
47113;SDS011;32867;51.556;6.832;2023-04-15T05:58:33;11.77;;;8.60;;
47113;SDS011;32867;51.556;6.832;2023-04-15T06:03:33;11.77;;;8.65;;
47113;SDS011;32867;51.556;6.832;2023-04-15T06:08:34;11.43;;;9.18;;
47113;SDS011;32867;51.556;6.832;2023-04-15T06:13:35;11.93;;;9.20;;
47113;SDS011;32867;51.556;6.832;2023-04-15T06:18:36;12.00;;;9.32;;
47113;SDS011;32867;51.556;6.832;2023-04-15T06:23:36;9.90;;;7.53;;
47113;SDS011;32867;51.556;6.832;2023-04-15T06:28:40;13.10;;;8.23;;
47113;SDS011;32867;51.556;6.832;2023-04-15T06:33:40;11.60;;;8.13;;
47113;SDS011;32867;51.556;6.832;2023-04-15T06:38:41;11.57;;;8.73;;
47113;SDS011;32867;51.556;6.832;2023-04-15T06:43:41;9.35;;;7.35;;
47113;SDS011;32867;51.556;6.832;2023-04-15T06:48:42;11.45;;;7.82;;
47113;SDS011;32867;51.556;6.832;2023-04-15T06:53:43;10.93;;;8.20;;
47113;SDS011;32867;51.556;6.832;2023-04-15T06:58:44;10.80;;;8.07;;
47113;SDS011;32867;51.556;6.832;2023-04-15T07:03:44;10.25;;;8.25;;
47113;SDS011;32867;51.556;6.832;2023-04-15T07:08:45;9.68;;;7.05;;
47113;SDS011;32867;51.556;6.832;2023-04-15T07:13:46;10.02;;;7.82;;
47113;SDS011;32867;51.556;6.832;2023-04-15T07:18:47;9.65;;;7.25;;
47113;SDS011;32867;51.556;6.832;2023-04-15T07:23:47;8.75;;;6.55;;
47113;SDS011;32867;51.556;6.832;2023-04-15T07:28:48;8.55;;;6.82;;
47113;SDS011;32867;51.556;6.832;2023-04-15T07:33:49;7.35;;;5.68;;
47113;SDS011;32867;51.556;6.832;2023-04-15T07:38:49;10.13;;;5.57;;
47113;SDS011;32867;51.556;6.832;2023-04-15T07:43:50;9.38;;;5.68;;
47113;SDS011;32867;51.556;6.832;2023-04-15T07:48:51;8.13;;;5.03;;
47113;SDS011;32867;51.556;6.832;2023-04-15T07:53:52;7.82;;;5.35;;
47113;SDS011;32867;51.556;6.832;2023-04-15T07:58:54;7.90;;;4.93;;
47113;SDS011;32867;51.556;6.832;2023-04-15T08:03:54;6.07;;;4.60;;
47113;SDS011;32867;51.556;6.832;2023-04-15T08:08:56;5.47;;;3.92;;
47113;SDS011;32867;51.556;6.832;2023-04-15T08:13:56;5.15;;;3.70;;
47113;SDS011;32867;51.556;6.832;2023-04-15T08:18:57;6.53;;;3.40;;
47113;SDS011;32867;51.556;6.832;2023-04-15T08:23:57;4.55;;;3.40;;
47113;SDS011;32867;51.556;6.832;2023-04-15T08:28:59;5.70;;;3.38;;
47113;SDS011;32867;51.556;6.832;2023-04-15T08:34:00;4.72;;;3.58;;
47113;SDS011;32867;51.556;6.832;2023-04-15T08:39:01;6.32;;;3.70;;
47113;SDS011;32867;51.556;6.832;2023-04-15T08:44:04;5.07;;;3.55;;
47113;SDS011;32867;51.556;6.832;2023-04-15T08:49:05;5.60;;;3.70;;
47113;SDS011;32867;51.556;6.832;2023-04-15T08:54:11;6.27;;;3.80;;
47113;SDS011;32867;51.556;6.832;2023-04-15T08:59:12;6.03;;;3.92;;
47113;SDS011;32867;51.556;6.832;2023-04-15T09:04:13;4.70;;;3.67;;
47113;SDS011;32867;51.556;6.832;2023-04-15T09:09:15;5.50;;;3.83;;
47113;SDS011;32867;51.556;6.832;2023-04-15T09:14:16;5.07;;;3.78;;
47113;SDS011;32867;51.556;6.832;2023-04-15T09:19:21;4.75;;;3.40;;
47113;SDS011;32867;51.556;6.832;2023-04-15T09:24:23;4.80;;;3.42;;
47113;SDS011;32867;51.556;6.832;2023-04-15T09:29:24;4.68;;;3.33;;
47113;SDS011;32867;51.556;6.832;2023-04-15T09:34:34;4.82;;;3.67;;
47113;SDS011;32867;51.556;6.832;2023-04-15T09:39:44;4.47;;;3.28;;
47113;SDS011;32867;51.556;6.832;2023-04-15T09:44:51;5.03;;;4.15;;
47113;SDS011;32867;51.556;6.832;2023-04-15T09:49:55;5.50;;;4.20;;
47113;SDS011;32867;51.556;6.832;2023-04-15T09:54:57;5.15;;;3.60;;
47113;SDS011;32867;51.556;6.832;2023-04-15T09:59:58;5.72;;;3.97;;
47113;SDS011;32867;51.556;6.832;2023-04-15T10:05:00;5.45;;;4.38;;
47113;SDS011;32867;51.556;6.832;2023-04-15T10:10:01;5.20;;;3.90;;
47113;SDS011;32867;51.556;6.832;2023-04-15T10:15:03;5.45;;;3.40;;
47113;SDS011;32867;51.556;6.832;2023-04-15T10:20:06;6.57;;;4.40;;
47113;SDS011;32867;51.556;6.832;2023-04-15T10:25:08;6.63;;;4.80;;
47113;SDS011;32867;51.556;6.832;2023-04-15T10:30:10;5.53;;;3.55;;
47113;SDS011;32867;51.556;6.832;2023-04-15T10:35:11;7.22;;;3.97;;
47113;SDS011;32867;51.556;6.832;2023-04-15T10:40:25;4.80;;;3.53;;
47113;SDS011;32867;51.556;6.832;2023-04-15T10:50:32;4.47;;;3.10;;
47113;SDS011;32867;51.556;6.832;2023-04-15T10:55:33;3.97;;;2.83;;
47113;SDS011;32867;51.556;6.832;2023-04-15T11:00:34;4.65;;;3.25;;
47113;SDS011;32867;51.556;6.832;2023-04-15T11:10:49;4.22;;;2.95;;
47113;SDS011;32867;51.556;6.832;2023-04-15T11:15:54;6.15;;;3.40;;
47113;SDS011;32867;51.556;6.832;2023-04-15T11:20:58;4.75;;;3.55;;
47113;SDS011;32867;51.556;6.832;2023-04-15T11:26:00;4.57;;;3.20;;
47113;SDS011;32867;51.556;6.832;2023-04-15T11:31:05;4.40;;;3.13;;
47113;SDS011;32867;51.556;6.832;2023-04-15T11:36:06;4.88;;;3.55;;
47113;SDS011;32867;51.556;6.832;2023-04-15T11:41:07;4.10;;;2.80;;
47113;SDS011;32867;51.556;6.832;2023-04-15T11:46:07;4.65;;;3.20;;
47113;SDS011;32867;51.556;6.832;2023-04-15T11:51:10;4.20;;;2.95;;
47113;SDS011;32867;51.556;6.832;2023-04-15T11:56:19;3.42;;;2.47;;
47113;SDS011;32867;51.556;6.832;2023-04-15T12:06:36;3.90;;;2.40;;
47113;SDS011;32867;51.556;6.832;2023-04-15T12:16:53;3.90;;;2.40;;
47113;SDS011;32867;51.556;6.832;2023-04-15T12:21:57;3.88;;;2.63;;
47113;SDS011;32867;51.556;6.832;2023-04-15T12:27:01;4.10;;;2.55;;
47113;SDS011;32867;51.556;6.832;2023-04-15T12:32:05;4.72;;;2.58;;
47113;SDS011;32867;51.556;6.832;2023-04-15T12:37:10;3.80;;;2.65;;
47113;SDS011;32867;51.556;6.832;2023-04-15T12:42:15;4.35;;;2.67;;
47113;SDS011;32867;51.556;6.832;2023-04-15T12:47:16;4.13;;;2.50;;
47113;SDS011;32867;51.556;6.832;2023-04-15T12:52:17;4.22;;;2.83;;
47113;SDS011;32867;51.556;6.832;2023-04-15T12:57:18;4.50;;;2.67;;
47113;SDS011;32867;51.556;6.832;2023-04-15T13:02:18;5.72;;;2.95;;
47113;SDS011;32867;51.556;6.832;2023-04-15T13:07:20;4.63;;;2.90;;
47113;SDS011;32867;51.556;6.832;2023-04-15T13:12:20;4.03;;;2.67;;
47113;SDS011;32867;51.556;6.832;2023-04-15T13:17:21;4.22;;;2.97;;
47113;SDS011;32867;51.556;6.832;2023-04-15T13:22:22;3.38;;;2.20;;
47113;SDS011;32867;51.556;6.832;2023-04-15T13:27:22;4.60;;;2.78;;
47113;SDS011;32867;51.556;6.832;2023-04-15T13:32:23;2.80;;;1.92;;
47113;SDS011;32867;51.556;6.832;2023-04-15T13:37:25;3.85;;;2.20;;
47113;SDS011;32867;51.556;6.832;2023-04-15T13:42:27;3.58;;;1.90;;
47113;SDS011;32867;51.556;6.832;2023-04-15T13:47:27;3.72;;;2.20;;
47113;SDS011;32867;51.556;6.832;2023-04-15T13:52:28;3.53;;;2.10;;
47113;SDS011;32867;51.556;6.832;2023-04-15T13:57:29;2.55;;;1.80;;
47113;SDS011;32867;51.556;6.832;2023-04-15T14:02:30;3.35;;;2.10;;
47113;SDS011;32867;51.556;6.832;2023-04-15T14:07:31;4.10;;;2.33;;
47113;SDS011;32867;51.556;6.832;2023-04-15T14:12:32;3.22;;;2.00;;
47113;SDS011;32867;51.556;6.832;2023-04-15T14:17:32;2.70;;;1.58;;
47113;SDS011;32867;51.556;6.832;2023-04-15T14:22:33;3.60;;;1.80;;
47113;SDS011;32867;51.556;6.832;2023-04-15T14:27:34;2.72;;;1.70;;
47113;SDS011;32867;51.556;6.832;2023-04-15T14:32:34;4.10;;;1.90;;
47113;SDS011;32867;51.556;6.832;2023-04-15T14:37:35;3.38;;;2.20;;
47113;SDS011;32867;51.556;6.832;2023-04-15T14:42:36;3.50;;;1.80;;
47113;SDS011;32867;51.556;6.832;2023-04-15T14:47:36;3.65;;;2.03;;
47113;SDS011;32867;51.556;6.832;2023-04-15T14:52:37;5.38;;;2.10;;
47113;SDS011;32867;51.556;6.832;2023-04-15T14:57:38;4.28;;;2.25;;
47113;SDS011;32867;51.556;6.832;2023-04-15T15:02:40;3.50;;;2.17;;
47113;SDS011;32867;51.556;6.832;2023-04-15T15:07:41;3.40;;;2.10;;
47113;SDS011;32867;51.556;6.832;2023-04-15T15:12:41;2.95;;;2.00;;
47113;SDS011;32867;51.556;6.832;2023-04-15T15:17:42;3.47;;;2.00;;
47113;SDS011;32867;51.556;6.832;2023-04-15T15:22:43;2.90;;;1.85;;
47113;SDS011;32867;51.556;6.832;2023-04-15T15:27:43;4.97;;;1.80;;
47113;SDS011;32867;51.556;6.832;2023-04-15T15:39:07;2.95;;;1.80;;
47113;SDS011;32867;51.556;6.832;2023-04-15T15:44:07;3.17;;;1.95;;
47113;SDS011;32867;51.556;6.832;2023-04-15T15:49:08;4.97;;;2.30;;
47113;SDS011;32867;51.556;6.832;2023-04-15T15:54:09;3.65;;;1.67;;
47113;SDS011;32867;51.556;6.832;2023-04-15T15:59:10;4.47;;;2.20;;
47113;SDS011;32867;51.556;6.832;2023-04-15T16:04:11;3.97;;;2.40;;
47113;SDS011;32867;51.556;6.832;2023-04-15T16:09:12;4.80;;;2.70;;
47113;SDS011;32867;51.556;6.832;2023-04-15T16:14:13;4.97;;;2.45;;
47113;SDS011;32867;51.556;6.832;2023-04-15T16:19:13;3.60;;;1.90;;
47113;SDS011;32867;51.556;6.832;2023-04-15T16:24:14;3.97;;;2.00;;
47113;SDS011;32867;51.556;6.832;2023-04-15T16:29:14;3.35;;;1.73;;
47113;SDS011;32867;51.556;6.832;2023-04-15T16:34:15;7.45;;;2.50;;
47113;SDS011;32867;51.556;6.832;2023-04-15T16:39:16;4.25;;;1.83;;
47113;SDS011;32867;51.556;6.832;2023-04-15T16:44:18;4.68;;;2.15;;
47113;SDS011;32867;51.556;6.832;2023-04-15T16:49:19;4.60;;;2.70;;
47113;SDS011;32867;51.556;6.832;2023-04-15T16:54:20;4.38;;;2.25;;
47113;SDS011;32867;51.556;6.832;2023-04-15T16:59:20;8.60;;;2.42;;
47113;SDS011;32867;51.556;6.832;2023-04-15T17:04:21;5.00;;;1.90;;
47113;SDS011;32867;51.556;6.832;2023-04-15T17:09:21;6.55;;;2.40;;
47113;SDS011;32867;51.556;6.832;2023-04-15T17:14:22;4.65;;;2.00;;
47113;SDS011;32867;51.556;6.832;2023-04-15T17:19:23;6.35;;;2.10;;
47113;SDS011;32867;51.556;6.832;2023-04-15T17:24:23;3.50;;;1.77;;
47113;SDS011;32867;51.556;6.832;2023-04-15T17:29:24;4.03;;;1.80;;
47113;SDS011;32867;51.556;6.832;2023-04-15T17:34:26;5.15;;;2.13;;
47113;SDS011;32867;51.556;6.832;2023-04-15T17:39:27;4.43;;;1.98;;
47113;SDS011;32867;51.556;6.832;2023-04-15T17:44:28;5.40;;;1.95;;
47113;SDS011;32867;51.556;6.832;2023-04-15T17:49:29;6.97;;;2.20;;
47113;SDS011;32867;51.556;6.832;2023-04-15T17:54:30;6.28;;;1.83;;
47113;SDS011;32867;51.556;6.832;2023-04-15T17:59:30;7.03;;;2.50;;
47113;SDS011;32867;51.556;6.832;2023-04-15T18:04:32;6.95;;;2.25;;
47113;SDS011;32867;51.556;6.832;2023-04-15T18:09:33;4.10;;;1.70;;
47113;SDS011;32867;51.556;6.832;2023-04-15T18:14:34;7.85;;;2.10;;
47113;SDS011;32867;51.556;6.832;2023-04-15T18:19:35;5.65;;;1.80;;
47113;SDS011;32867;51.556;6.832;2023-04-15T18:24:35;4.05;;;1.60;;
47113;SDS011;32867;51.556;6.832;2023-04-15T18:29:36;6.38;;;2.00;;
47113;SDS011;32867;51.556;6.832;2023-04-15T18:34:37;8.77;;;2.30;;
47113;SDS011;32867;51.556;6.832;2023-04-15T18:39:38;7.72;;;2.20;;
47113;SDS011;32867;51.556;6.832;2023-04-15T18:44:39;6.95;;;2.13;;
47113;SDS011;32867;51.556;6.832;2023-04-15T18:49:40;5.88;;;2.10;;
47113;SDS011;32867;51.556;6.832;2023-04-15T18:54:40;7.35;;;2.50;;
47113;SDS011;32867;51.556;6.832;2023-04-15T18:59:41;5.80;;;2.42;;
47113;SDS011;32867;51.556;6.832;2023-04-15T19:04:42;8.20;;;3.17;;
47113;SDS011;32867;51.556;6.832;2023-04-15T19:09:42;6.40;;;2.60;;
47113;SDS011;32867;51.556;6.832;2023-04-15T19:14:43;7.78;;;3.42;;
47113;SDS011;32867;51.556;6.832;2023-04-15T19:19:44;6.93;;;2.70;;
47113;SDS011;32867;51.556;6.832;2023-04-15T19:24:45;7.70;;;2.78;;
47113;SDS011;32867;51.556;6.832;2023-04-15T19:29:45;7.90;;;2.88;;
47113;SDS011;32867;51.556;6.832;2023-04-15T19:34:46;6.22;;;2.40;;
47113;SDS011;32867;51.556;6.832;2023-04-15T19:39:47;4.38;;;2.25;;
47113;SDS011;32867;51.556;6.832;2023-04-15T19:44:48;6.82;;;2.50;;
47113;SDS011;32867;51.556;6.832;2023-04-15T19:49:49;7.18;;;2.50;;
47113;SDS011;32867;51.556;6.832;2023-04-15T19:54:50;5.50;;;2.30;;
47113;SDS011;32867;51.556;6.832;2023-04-15T19:59:51;5.93;;;2.25;;
47113;SDS011;32867;51.556;6.832;2023-04-15T20:04:51;4.45;;;2.40;;
47113;SDS011;32867;51.556;6.832;2023-04-15T20:09:52;8.73;;;2.55;;
47113;SDS011;32867;51.556;6.832;2023-04-15T20:14:53;5.90;;;2.47;;
47113;SDS011;32867;51.556;6.832;2023-04-15T20:19:53;8.10;;;2.70;;
47113;SDS011;32867;51.556;6.832;2023-04-15T20:24:54;6.93;;;3.03;;
47113;SDS011;32867;51.556;6.832;2023-04-15T20:29:54;8.15;;;2.78;;
47113;SDS011;32867;51.556;6.832;2023-04-15T20:34:55;8.23;;;2.92;;
47113;SDS011;32867;51.556;6.832;2023-04-15T20:39:56;8.98;;;2.28;;
47113;SDS011;32867;51.556;6.832;2023-04-15T20:44:56;8.27;;;2.95;;
47113;SDS011;32867;51.556;6.832;2023-04-15T20:49:57;7.60;;;2.90;;
47113;SDS011;32867;51.556;6.832;2023-04-15T20:54:58;7.05;;;3.10;;
47113;SDS011;32867;51.556;6.832;2023-04-15T20:59:58;7.05;;;3.25;;
47113;SDS011;32867;51.556;6.832;2023-04-15T21:04:59;7.78;;;3.20;;
47113;SDS011;32867;51.556;6.832;2023-04-15T21:10:00;11.48;;;3.92;;
47113;SDS011;32867;51.556;6.832;2023-04-15T21:15:00;10.82;;;4.30;;
47113;SDS011;32867;51.556;6.832;2023-04-15T21:20:01;8.63;;;3.90;;
47113;SDS011;32867;51.556;6.832;2023-04-15T21:25:02;8.45;;;4.00;;
47113;SDS011;32867;51.556;6.832;2023-04-15T21:30:03;8.38;;;4.07;;
47113;SDS011;32867;51.556;6.832;2023-04-15T21:35:04;12.02;;;3.83;;
47113;SDS011;32867;51.556;6.832;2023-04-15T21:40:06;9.80;;;4.43;;
47113;SDS011;32867;51.556;6.832;2023-04-15T21:45:07;9.20;;;4.30;;
47113;SDS011;32867;51.556;6.832;2023-04-15T21:50:08;10.27;;;4.53;;
47113;SDS011;32867;51.556;6.832;2023-04-15T21:55:09;10.77;;;4.55;;
47113;SDS011;32867;51.556;6.832;2023-04-15T22:00:10;10.05;;;4.95;;
47113;SDS011;32867;51.556;6.832;2023-04-15T22:05:11;10.05;;;4.38;;
47113;SDS011;32867;51.556;6.832;2023-04-15T22:10:11;9.75;;;4.25;;
47113;SDS011;32867;51.556;6.832;2023-04-15T22:15:12;10.63;;;4.63;;
47113;SDS011;32867;51.556;6.832;2023-04-15T22:20:13;10.73;;;4.75;;
47113;SDS011;32867;51.556;6.832;2023-04-15T22:25:14;9.02;;;4.60;;
47113;SDS011;32867;51.556;6.832;2023-04-15T22:30:15;7.72;;;4.45;;
47113;SDS011;32867;51.556;6.832;2023-04-15T22:35:16;11.15;;;4.53;;
47113;SDS011;32867;51.556;6.832;2023-04-15T22:40:17;13.98;;;5.28;;
47113;SDS011;32867;51.556;6.832;2023-04-15T22:45:17;10.43;;;4.90;;
47113;SDS011;32867;51.556;6.832;2023-04-15T22:50:18;10.18;;;4.18;;
47113;SDS011;32867;51.556;6.832;2023-04-15T22:55:19;10.45;;;3.88;;
47113;SDS011;32867;51.556;6.832;2023-04-15T23:00:19;12.55;;;4.30;;
47113;SDS011;32867;51.556;6.832;2023-04-15T23:05:20;9.45;;;4.20;;
47113;SDS011;32867;51.556;6.832;2023-04-15T23:10:21;12.90;;;4.82;;
47113;SDS011;32867;51.556;6.832;2023-04-15T23:15:22;9.93;;;5.13;;
47113;SDS011;32867;51.556;6.832;2023-04-15T23:20:22;10.25;;;4.70;;
47113;SDS011;32867;51.556;6.832;2023-04-15T23:25:23;11.88;;;5.18;;
47113;SDS011;32867;51.556;6.832;2023-04-15T23:30:24;11.43;;;5.68;;
47113;SDS011;32867;51.556;6.832;2023-04-15T23:35:25;10.35;;;5.57;;
47113;SDS011;32867;51.556;6.832;2023-04-15T23:40:26;8.27;;;5.00;;
47113;SDS011;32867;51.556;6.832;2023-04-15T23:45:27;11.50;;;5.38;;
47113;SDS011;32867;51.556;6.832;2023-04-15T23:50:28;11.73;;;6.38;;
47113;SDS011;32867;51.556;6.832;2023-04-15T23:55:28;10.02;;;5.47;;
